createdAt,value
2022-10-23T00:00:51.882Z,13.55
2022-10-23T00:01:51.808Z,13.54
2022-10-23T00:02:51.887Z,13.50
2022-10-23T00:03:51.816Z,13.50
2022-10-23T00:04:51.775Z,13.48
2022-10-23T00:05:51.765Z,13.48
2022-10-23T00:06:51.765Z,13.47
2022-10-23T00:07:51.755Z,13.47
2022-10-23T00:08:51.735Z,13.47
2022-10-23T00:09:51.754Z,13.44
2022-10-23T00:10:51.718Z,13.44
2022-10-23T00:11:51.717Z,13.41
2022-10-23T00:12:51.686Z,13.43
2022-10-23T00:13:51.697Z,13.41
2022-10-23T00:14:51.676Z,13.41
2022-10-23T00:16:51.668Z,13.36
2022-10-23T00:17:51.646Z,13.35
2022-10-23T00:18:51.617Z,13.29
2022-10-23T00:19:51.627Z,13.32
2022-10-23T00:20:51.598Z,13.29
2022-10-23T00:21:51.607Z,13.31
2022-10-23T00:22:51.597Z,13.27
2022-10-23T00:23:51.678Z,13.24
2022-10-23T00:24:51.578Z,13.22
2022-10-23T00:25:51.548Z,13.21
2022-10-23T00:26:51.551Z,13.21
2022-10-23T00:27:51.539Z,13.16
2022-10-23T00:28:51.537Z,13.16
2022-10-23T00:29:51.534Z,13.14
2022-10-23T00:30:51.509Z,13.13
2022-10-23T00:31:51.507Z,13.10
2022-10-23T00:32:51.495Z,13.07
2022-10-23T00:33:51.487Z,13.06
2022-10-23T00:34:51.460Z,13.03
2022-10-23T00:35:51.451Z,13.04
2022-10-23T00:36:51.449Z,13.01
2022-10-23T00:37:51.442Z,13.01
2022-10-23T00:38:51.418Z,13.01
2022-10-23T00:39:51.401Z,12.99
2022-10-23T00:40:51.389Z,12.98
2022-10-23T00:41:51.420Z,12.99
2022-10-23T00:42:51.469Z,12.96
2022-10-23T00:43:51.400Z,12.95
2022-10-23T00:44:51.356Z,12.94
2022-10-23T00:45:51.334Z,12.92
2022-10-23T00:46:51.332Z,12.91
2022-10-23T00:47:51.333Z,12.91
2022-10-23T00:48:51.323Z,12.89
2022-10-23T00:49:51.294Z,12.88
2022-10-23T00:50:51.284Z,12.88
2022-10-23T00:51:51.304Z,12.85
2022-10-23T00:52:51.271Z,12.81
2022-10-23T00:54:01.078Z,12.81
2022-10-23T00:54:52.233Z,12.80
2022-10-23T00:55:51.244Z,12.81
2022-10-23T00:56:51.253Z,12.84
2022-10-23T00:57:51.215Z,12.84
2022-10-23T00:58:51.233Z,12.81
2022-10-23T00:59:51.202Z,12.81
2022-10-23T01:00:51.176Z,12.81
2022-10-23T01:01:51.276Z,12.81
2022-10-23T01:02:51.175Z,12.80
2022-10-23T01:03:51.164Z,12.79
2022-10-23T01:04:51.147Z,12.77
2022-10-23T01:05:51.127Z,12.76
2022-10-23T01:06:51.115Z,12.74
2022-10-23T01:07:51.136Z,12.74
2022-10-23T01:08:51.086Z,12.73
2022-10-23T01:09:51.096Z,12.71
2022-10-23T01:10:51.086Z,12.73
2022-10-23T01:11:51.083Z,12.71
2022-10-23T01:12:51.046Z,12.70
2022-10-23T01:13:51.071Z,12.70
2022-10-23T01:14:51.026Z,12.70
2022-10-23T01:15:51.038Z,12.70
2022-10-23T01:16:51.017Z,12.70
2022-10-23T01:17:51.311Z,12.69
2022-10-23T01:18:50.978Z,12.67
2022-10-23T01:19:50.988Z,12.66
2022-10-23T01:20:50.998Z,12.67
2022-10-23T01:21:50.968Z,12.66
2022-10-23T01:22:50.950Z,12.66
2022-10-23T01:23:50.966Z,12.62
2022-10-23T01:24:50.917Z,12.61
2022-10-23T01:25:50.939Z,12.61
2022-10-23T01:26:50.909Z,12.61
2022-10-23T01:27:50.890Z,12.61
2022-10-23T01:28:50.869Z,12.62
2022-10-23T01:29:50.892Z,12.62
2022-10-23T01:30:50.852Z,12.61
2022-10-23T01:31:50.884Z,12.58
2022-10-23T01:32:50.850Z,12.55
2022-10-23T01:33:50.839Z,12.55
2022-10-23T01:34:50.831Z,12.55
2022-10-23T01:35:50.819Z,12.55
2022-10-23T01:36:50.802Z,12.56
2022-10-23T01:37:50.805Z,12.55
2022-10-23T01:38:50.816Z,12.55
2022-10-23T01:39:50.780Z,12.55
2022-10-23T01:40:50.754Z,12.55
2022-10-23T01:41:50.764Z,12.54
2022-10-23T01:42:50.734Z,12.54
2022-10-23T01:43:50.724Z,12.54
2022-10-23T01:44:50.713Z,12.52
2022-10-23T01:45:50.715Z,12.54
2022-10-23T01:46:50.683Z,12.52
2022-10-23T01:47:50.700Z,12.54
2022-10-23T01:48:50.665Z,12.52
2022-10-23T01:49:50.668Z,12.52
2022-10-23T01:50:50.653Z,12.54
2022-10-23T01:51:50.636Z,12.52
2022-10-23T01:52:50.635Z,12.51
2022-10-23T01:53:50.614Z,12.51
2022-10-23T01:54:50.614Z,12.51
2022-10-23T01:55:50.595Z,12.48
2022-10-23T01:56:50.575Z,12.51
2022-10-23T01:57:50.566Z,12.54
2022-10-23T01:58:50.588Z,12.54
2022-10-23T01:59:50.565Z,12.52
2022-10-23T02:00:50.569Z,12.54
2022-10-23T02:01:50.702Z,12.55
2022-10-23T02:02:50.566Z,12.52
2022-10-23T02:03:50.534Z,12.52
2022-10-23T02:04:50.504Z,12.51
2022-10-23T02:05:50.507Z,12.49
2022-10-23T02:06:50.486Z,12.49
2022-10-23T02:07:50.476Z,12.48
2022-10-23T02:08:50.446Z,12.48
2022-10-23T02:09:50.465Z,12.46
2022-10-23T02:10:50.475Z,12.44
2022-10-23T02:11:50.427Z,12.43
2022-10-23T02:12:50.419Z,12.41
2022-10-23T02:13:50.397Z,12.41
2022-10-23T02:14:50.389Z,12.41
2022-10-23T02:15:50.397Z,12.40
2022-10-23T02:16:50.388Z,12.43
2022-10-23T02:17:50.359Z,12.41
2022-10-23T02:18:50.359Z,12.43
2022-10-23T02:19:50.338Z,12.41
2022-10-23T02:20:50.320Z,12.41
2022-10-23T02:21:50.348Z,12.40
2022-10-23T02:22:50.319Z,12.41
2022-10-23T02:23:52.496Z,12.41
2022-10-23T02:24:51.281Z,12.43
2022-10-23T02:25:50.304Z,12.44
2022-10-23T02:26:50.280Z,12.41
2022-10-23T02:27:50.251Z,12.43
2022-10-23T02:28:50.250Z,12.44
2022-10-23T02:29:50.241Z,12.44
2022-10-23T02:30:50.231Z,12.46
2022-10-23T02:31:50.213Z,12.48
2022-10-23T02:32:50.210Z,12.48
2022-10-23T02:33:50.201Z,12.48
2022-10-23T02:34:50.180Z,12.48
2022-10-23T02:35:50.191Z,12.54
2022-10-23T02:36:50.151Z,12.56
2022-10-23T02:37:50.142Z,12.55
2022-10-23T02:38:50.143Z,12.55
2022-10-23T02:39:50.133Z,12.56
2022-10-23T02:40:50.132Z,12.55
2022-10-23T02:41:50.102Z,12.55
2022-10-23T02:42:50.122Z,12.56
2022-10-23T02:43:50.103Z,12.59
2022-10-23T02:44:50.083Z,12.59
2022-10-23T02:45:50.066Z,12.61
2022-10-23T02:46:50.072Z,12.61
2022-10-23T02:47:50.035Z,12.59
2022-10-23T02:48:50.024Z,12.58
2022-10-23T02:49:50.042Z,12.58
2022-10-23T02:50:50.005Z,12.58
2022-10-23T02:51:50.014Z,12.58
2022-10-23T02:52:50.003Z,12.59
2022-10-23T02:53:50.026Z,12.58
2022-10-23T02:54:49.975Z,12.59
2022-10-23T02:55:49.956Z,12.58
2022-10-23T02:56:49.955Z,12.58
2022-10-23T02:57:49.945Z,12.59
2022-10-23T02:58:49.936Z,12.61
2022-10-23T02:59:49.916Z,12.61
2022-10-23T03:00:49.906Z,12.59
2022-10-23T03:01:49.967Z,12.58
2022-10-23T03:02:49.885Z,12.58
2022-10-23T03:03:49.877Z,12.58
2022-10-23T03:04:49.868Z,12.58
2022-10-23T03:05:49.848Z,12.58
2022-10-23T03:06:49.847Z,12.56
2022-10-23T03:07:49.857Z,12.56
2022-10-23T03:08:49.816Z,12.56
2022-10-23T03:09:49.817Z,12.56
2022-10-23T03:10:49.830Z,12.56
2022-10-23T03:11:49.782Z,12.56
2022-10-23T03:12:49.788Z,12.56
2022-10-23T03:13:49.778Z,12.55
2022-10-23T03:14:49.748Z,12.54
2022-10-23T03:15:49.768Z,12.52
2022-10-23T03:16:49.738Z,12.52
2022-10-23T03:17:49.721Z,12.51
2022-10-23T03:18:49.709Z,12.49
2022-10-23T03:19:49.700Z,12.52
2022-10-23T03:20:49.721Z,12.49
2022-10-23T03:21:49.669Z,12.49
2022-10-23T03:22:49.680Z,12.49
2022-10-23T03:23:49.659Z,12.49
2022-10-23T03:24:49.651Z,12.44
2022-10-23T03:25:49.650Z,12.44
2022-10-23T03:26:49.647Z,12.44
2022-10-23T03:27:49.625Z,12.43
2022-10-23T03:28:49.620Z,12.43
2022-10-23T03:29:49.601Z,12.43
2022-10-23T03:30:49.590Z,12.43
2022-10-23T03:31:49.581Z,12.43
2022-10-23T03:32:49.578Z,12.43
2022-10-23T03:33:49.571Z,12.43
2022-10-23T03:34:49.553Z,12.43
2022-10-23T03:35:49.550Z,12.43
2022-10-23T03:36:49.563Z,12.43
2022-10-23T03:37:49.530Z,12.43
2022-10-23T03:38:49.511Z,12.43
2022-10-23T03:39:49.482Z,12.43
2022-10-23T03:40:49.474Z,12.41
2022-10-23T03:41:49.462Z,12.41
2022-10-23T03:42:49.461Z,12.41
2022-10-23T03:43:49.432Z,12.41
2022-10-23T03:44:49.433Z,12.40
2022-10-23T03:45:49.434Z,12.43
2022-10-23T03:46:49.414Z,12.43
2022-10-23T03:47:49.415Z,12.41
2022-10-23T03:48:49.415Z,12.41
2022-10-23T03:49:49.374Z,12.41
2022-10-23T03:50:49.365Z,12.43
2022-10-23T03:51:49.375Z,12.43
2022-10-23T03:52:49.364Z,12.43
2022-10-23T03:53:49.334Z,12.43
2022-10-23T03:54:49.335Z,12.46
2022-10-23T03:55:49.336Z,12.48
2022-10-23T03:56:51.457Z,12.46
2022-10-23T03:57:49.306Z,12.44
2022-10-23T03:58:49.295Z,12.44
2022-10-23T03:59:49.284Z,12.46
2022-10-23T04:00:49.278Z,12.48
2022-10-23T04:01:49.356Z,12.46
2022-10-23T04:02:49.281Z,12.44
2022-10-23T04:03:49.236Z,12.46
2022-10-23T04:04:49.248Z,12.46
2022-10-23T04:05:52.181Z,12.48
2022-10-23T04:06:49.214Z,12.48
2022-10-23T04:07:49.197Z,12.51
2022-10-23T04:08:49.178Z,12.49
2022-10-23T04:09:49.188Z,12.51
2022-10-23T04:10:49.148Z,12.51
2022-10-23T04:11:49.148Z,12.52
2022-10-23T04:12:49.158Z,12.52
2022-10-23T04:13:49.118Z,12.52
2022-10-23T04:14:49.131Z,12.52
2022-10-23T04:15:49.108Z,12.52
2022-10-23T04:16:49.105Z,12.51
2022-10-23T04:17:49.111Z,12.52
2022-10-23T04:18:49.070Z,12.49
2022-10-23T04:19:49.051Z,12.49
2022-10-23T04:20:49.060Z,12.49
2022-10-23T04:21:49.050Z,12.49
2022-10-23T04:22:49.030Z,12.49
2022-10-23T04:23:49.010Z,12.49
2022-10-23T04:24:49.011Z,12.48
2022-10-23T04:25:49.015Z,12.48
2022-10-23T04:26:48.999Z,12.46
2022-10-23T04:27:48.991Z,12.44
2022-10-23T04:28:49.000Z,12.44
2022-10-23T04:29:48.961Z,12.43
2022-10-23T04:30:48.951Z,12.43
2022-10-23T04:31:48.952Z,12.44
2022-10-23T04:32:48.959Z,12.43
2022-10-23T04:33:48.923Z,12.44
2022-10-23T04:34:48.902Z,12.44
2022-10-23T04:35:48.892Z,12.43
2022-10-23T04:36:48.897Z,12.43
2022-10-23T04:37:48.894Z,12.44
2022-10-23T04:38:48.862Z,12.43
2022-10-23T04:39:48.850Z,12.41
2022-10-23T04:40:48.862Z,12.41
2022-10-23T04:41:48.823Z,12.41
2022-10-23T04:42:48.834Z,12.44
2022-10-23T04:43:48.814Z,12.44
2022-10-23T04:44:48.802Z,12.48
2022-10-23T04:45:48.794Z,12.48
2022-10-23T04:46:48.784Z,12.49
2022-10-23T04:47:48.764Z,12.49
2022-10-23T04:48:48.753Z,12.51
2022-10-23T04:49:48.765Z,12.52
2022-10-23T04:50:48.752Z,12.52
2022-10-23T04:51:48.717Z,12.52
2022-10-23T04:52:48.714Z,12.52
2022-10-23T04:53:48.706Z,12.54
2022-10-23T04:54:48.724Z,12.56
2022-10-23T04:55:48.694Z,12.56
2022-10-23T04:56:48.696Z,12.55
2022-10-23T04:57:48.665Z,12.56
2022-10-23T04:58:48.657Z,12.56
2022-10-23T04:59:48.649Z,12.58
2022-10-23T05:00:48.714Z,12.58
2022-10-23T05:01:48.654Z,12.59
2022-10-23T05:02:48.617Z,12.61
2022-10-23T05:03:48.597Z,12.62
2022-10-23T05:04:48.608Z,12.59
2022-10-23T05:05:48.569Z,12.61
2022-10-23T05:06:48.594Z,12.62
2022-10-23T05:07:48.578Z,12.66
2022-10-23T05:08:48.539Z,12.63
2022-10-23T05:09:48.531Z,12.63
2022-10-23T05:10:48.519Z,12.63
2022-10-23T05:11:48.554Z,12.62
2022-10-23T05:12:48.520Z,12.63
2022-10-23T05:13:48.499Z,12.63
2022-10-23T05:14:48.498Z,12.63
2022-10-23T05:15:48.521Z,12.66
2022-10-23T05:16:48.469Z,12.66
2022-10-23T05:17:48.457Z,12.67
2022-10-23T05:18:48.450Z,12.67
2022-10-23T05:19:48.420Z,12.67
2022-10-23T05:20:48.410Z,12.67
2022-10-23T05:21:48.431Z,12.67
2022-10-23T05:22:48.550Z,12.67
2022-10-23T05:23:48.428Z,12.66
2022-10-23T05:24:50.562Z,12.66
2022-10-23T05:25:48.361Z,12.66
2022-10-23T05:26:48.383Z,12.63
2022-10-23T05:27:48.355Z,12.63
2022-10-23T05:28:48.342Z,12.63
2022-10-23T05:29:48.332Z,12.62
2022-10-23T05:30:48.302Z,12.63
2022-10-23T05:31:48.374Z,12.63
2022-10-23T05:32:48.305Z,12.62
2022-10-23T05:33:48.282Z,12.63
2022-10-23T05:34:48.273Z,12.62
2022-10-23T05:35:48.273Z,12.62
2022-10-23T05:36:48.252Z,12.62
2022-10-23T05:37:48.244Z,12.62
2022-10-23T05:38:48.223Z,12.63
2022-10-23T05:39:48.229Z,12.66
2022-10-23T05:40:48.254Z,12.63
2022-10-23T05:41:48.213Z,12.66
2022-10-23T05:42:48.597Z,12.67
2022-10-23T05:43:48.173Z,12.67
2022-10-23T05:44:48.201Z,12.69
2022-10-23T05:45:48.186Z,12.69
2022-10-23T05:46:48.138Z,12.70
2022-10-23T05:47:48.136Z,12.70
2022-10-23T05:48:48.201Z,12.71
2022-10-23T05:49:48.143Z,12.69
2022-10-23T05:50:48.129Z,12.71
2022-10-23T05:51:48.086Z,12.70
2022-10-23T05:52:48.086Z,12.69
2022-10-23T05:53:48.066Z,12.69
2022-10-23T05:54:48.046Z,12.69
2022-10-23T05:55:48.068Z,12.67
2022-10-23T05:56:48.047Z,12.66
2022-10-23T05:57:48.028Z,12.63
2022-10-23T05:58:48.027Z,12.63
2022-10-23T05:59:48.028Z,12.63
2022-10-23T06:00:48.018Z,12.61
2022-10-23T06:01:48.151Z,12.63
2022-10-23T06:02:47.986Z,12.62
2022-10-23T06:03:47.958Z,12.61
2022-10-23T06:04:47.938Z,12.62
2022-10-23T06:05:47.949Z,12.62
2022-10-23T06:06:47.918Z,12.63
2022-10-23T06:07:47.918Z,12.63
2022-10-23T06:08:47.961Z,12.66
2022-10-23T06:09:47.917Z,12.69
2022-10-23T06:10:47.900Z,12.70
2022-10-23T06:11:47.896Z,12.70
2022-10-23T06:12:47.861Z,12.73
2022-10-23T06:13:47.881Z,12.74
2022-10-23T06:14:47.852Z,12.74
2022-10-23T06:15:47.850Z,12.79
2022-10-23T06:16:47.828Z,12.77
2022-10-23T06:17:47.821Z,12.80
2022-10-23T06:18:47.833Z,12.80
2022-10-23T06:19:47.794Z,12.84
2022-10-23T06:20:47.809Z,12.85
2022-10-23T06:21:47.781Z,12.85
2022-10-23T06:22:47.752Z,12.85
2022-10-23T06:23:47.742Z,12.87
2022-10-23T06:24:47.742Z,12.87
2022-10-23T06:25:47.732Z,12.88
2022-10-23T06:26:47.712Z,12.87
2022-10-23T06:27:47.703Z,12.88
2022-10-23T06:28:47.702Z,12.88
2022-10-23T06:29:47.684Z,12.89
2022-10-23T06:30:47.683Z,12.92
2022-10-23T06:31:47.671Z,12.92
2022-10-23T06:32:47.663Z,12.94
2022-10-23T06:33:47.657Z,12.94
2022-10-23T06:34:47.634Z,12.95
2022-10-23T06:35:47.620Z,12.94
2022-10-23T06:36:47.653Z,12.95
2022-10-23T06:37:47.593Z,12.95
2022-10-23T06:38:47.641Z,12.96
2022-10-23T06:39:47.586Z,12.96
2022-10-23T06:40:47.565Z,12.96
2022-10-23T06:41:47.545Z,12.98
2022-10-23T06:42:47.555Z,12.99
2022-10-23T06:43:47.545Z,13.01
2022-10-23T06:44:47.525Z,13.01
2022-10-23T06:45:47.526Z,13.03
2022-10-23T06:46:47.495Z,13.03
2022-10-23T06:47:47.496Z,13.04
2022-10-23T06:48:47.494Z,13.07
2022-10-23T06:49:47.486Z,13.09
2022-10-23T06:50:47.467Z,13.09
2022-10-23T06:51:47.466Z,13.12
2022-10-23T06:52:47.953Z,13.12
2022-10-23T06:53:47.451Z,13.13
2022-10-23T06:54:47.458Z,13.14
2022-10-23T06:55:50.078Z,13.16
2022-10-23T06:56:48.399Z,13.19
2022-10-23T06:57:47.538Z,13.21
2022-10-23T06:58:47.380Z,13.22
2022-10-23T06:59:47.358Z,13.22
2022-10-23T07:00:47.386Z,13.24
2022-10-23T07:01:47.491Z,13.27
2022-10-23T07:02:47.319Z,13.29
2022-10-23T07:03:47.338Z,13.31
2022-10-23T07:04:47.319Z,13.32
2022-10-23T07:05:47.298Z,13.35
2022-10-23T07:06:47.291Z,13.38
2022-10-23T07:07:47.302Z,13.38
2022-10-23T07:08:47.269Z,13.41
2022-10-23T07:09:47.260Z,13.41
2022-10-23T07:10:47.240Z,13.41
2022-10-23T07:11:47.240Z,13.44
2022-10-23T07:12:47.242Z,13.46
2022-10-23T07:13:47.219Z,13.47
2022-10-23T07:14:47.248Z,13.48
2022-10-23T07:15:47.220Z,13.50
2022-10-23T07:16:47.173Z,13.50
2022-10-23T07:17:47.169Z,13.51
2022-10-23T07:18:47.171Z,13.53
2022-10-23T07:19:47.187Z,13.54
2022-10-23T07:20:47.142Z,13.53
2022-10-23T07:21:47.131Z,13.55
2022-10-23T07:22:47.112Z,13.55
2022-10-23T07:23:47.102Z,13.57
2022-10-23T07:24:47.102Z,13.59
2022-10-23T07:25:47.084Z,13.61
2022-10-23T07:26:47.117Z,13.62
2022-10-23T07:27:47.063Z,13.63
2022-10-23T07:28:47.044Z,13.65
2022-10-23T07:29:47.043Z,13.66
2022-10-23T07:30:47.044Z,13.68
2022-10-23T07:31:47.044Z,13.69
2022-10-23T07:32:47.004Z,13.71
2022-10-23T07:33:47.044Z,13.73
2022-10-23T07:34:46.991Z,13.76
2022-10-23T07:35:46.974Z,13.76
2022-10-23T07:36:46.963Z,13.80
2022-10-23T07:37:46.975Z,13.81
2022-10-23T07:38:46.946Z,13.84
2022-10-23T07:39:46.953Z,13.86
2022-10-23T07:40:46.933Z,13.87
2022-10-23T07:41:46.917Z,13.88
2022-10-23T07:42:46.917Z,13.90
2022-10-23T07:43:46.903Z,13.91
2022-10-23T07:44:46.886Z,13.94
2022-10-23T07:45:46.877Z,13.96
2022-10-23T07:46:46.866Z,13.98
2022-10-23T07:47:46.848Z,13.99
2022-10-23T07:48:46.866Z,13.99
2022-10-23T07:49:46.847Z,14.01
2022-10-23T07:50:46.826Z,14.01
2022-10-23T07:51:50.558Z,14.01
2022-10-23T07:52:47.202Z,14.02
2022-10-23T07:53:46.821Z,14.04
2022-10-23T07:54:46.768Z,14.04
2022-10-23T07:55:46.780Z,14.05
2022-10-23T07:56:46.769Z,14.05
2022-10-23T07:57:46.739Z,14.06
2022-10-23T07:58:46.720Z,14.08
2022-10-23T07:59:46.750Z,14.09
2022-10-23T08:00:46.721Z,14.11
2022-10-23T08:01:46.818Z,14.12
2022-10-23T08:02:46.681Z,14.16
2022-10-23T08:03:46.691Z,14.17
2022-10-23T08:04:46.701Z,14.19
2022-10-23T08:05:46.658Z,14.20
2022-10-23T08:06:46.652Z,14.23
2022-10-23T08:07:46.632Z,14.23
2022-10-23T08:08:46.625Z,14.24
2022-10-23T08:09:46.632Z,14.26
2022-10-23T08:10:46.604Z,14.27
2022-10-23T08:11:46.591Z,14.29
2022-10-23T08:12:46.592Z,14.31
2022-10-23T08:13:46.573Z,14.34
2022-10-23T08:14:46.559Z,14.36
2022-10-23T08:15:46.545Z,14.38
2022-10-23T08:16:46.534Z,14.39
2022-10-23T08:17:46.545Z,14.44
2022-10-23T08:18:46.547Z,14.46
2022-10-23T08:19:46.505Z,14.48
2022-10-23T08:20:46.515Z,14.53
2022-10-23T08:21:46.496Z,14.56
2022-10-23T08:22:46.474Z,14.59
2022-10-23T08:23:46.522Z,14.61
2022-10-23T08:24:46.454Z,14.66
2022-10-23T08:25:46.466Z,14.71
2022-10-23T08:26:46.424Z,14.74
2022-10-23T08:27:46.425Z,14.79
2022-10-23T08:28:46.425Z,14.83
2022-10-23T08:29:46.425Z,14.87
2022-10-23T08:30:46.397Z,14.91
2022-10-23T08:31:46.376Z,14.94
2022-10-23T08:32:46.366Z,14.95
2022-10-23T08:33:46.429Z,15.00
2022-10-23T08:34:46.366Z,15.00
2022-10-23T08:35:46.358Z,15.01
2022-10-23T08:36:46.334Z,15.04
2022-10-23T08:37:47.328Z,15.05
2022-10-23T08:38:46.297Z,15.05
2022-10-23T08:39:48.076Z,15.05
2022-10-23T08:40:46.297Z,15.07
2022-10-23T08:41:46.268Z,15.09
2022-10-23T08:42:46.297Z,15.12
2022-10-23T08:43:46.269Z,15.15
2022-10-23T08:44:46.229Z,15.16
2022-10-23T08:45:46.228Z,15.16
2022-10-23T08:46:46.284Z,15.19
2022-10-23T08:47:46.233Z,15.20
2022-10-23T08:48:46.197Z,15.23
2022-10-23T08:49:46.219Z,15.23
2022-10-23T08:50:46.170Z,15.25
2022-10-23T08:51:46.180Z,15.25
2022-10-23T08:52:46.418Z,15.25
2022-10-23T08:53:46.150Z,15.22
2022-10-23T08:54:46.141Z,15.23
2022-10-23T08:55:46.131Z,15.25
2022-10-23T08:56:46.112Z,15.25
2022-10-23T08:57:46.092Z,15.27
2022-10-23T08:58:46.213Z,15.27
2022-10-23T08:59:46.100Z,15.28
2022-10-23T09:00:46.160Z,15.30
2022-10-23T09:01:46.212Z,15.28
2022-10-23T09:02:46.375Z,15.31
2022-10-23T09:03:46.032Z,15.33
2022-10-23T09:04:46.013Z,15.34
2022-10-23T09:05:46.022Z,15.37
2022-10-23T09:06:46.011Z,15.41
2022-10-23T09:07:46.250Z,15.44
2022-10-23T09:08:45.997Z,15.49
2022-10-23T09:09:45.995Z,15.53
2022-10-23T09:10:48.098Z,15.59
2022-10-23T09:11:45.963Z,15.62
2022-10-23T09:12:45.955Z,15.67
2022-10-23T09:13:46.033Z,15.73
2022-10-23T09:14:45.944Z,15.77
2022-10-23T09:15:45.894Z,15.80
2022-10-23T09:16:45.893Z,15.84
2022-10-23T09:17:46.275Z,15.86
2022-10-23T09:18:45.886Z,15.91
2022-10-23T09:19:45.855Z,15.92
2022-10-23T09:20:45.845Z,15.95
2022-10-23T09:21:45.863Z,15.98
2022-10-23T09:22:45.868Z,16.03
2022-10-23T09:23:45.816Z,16.06
2022-10-23T09:24:47.005Z,16.10
2022-10-23T09:25:45.797Z,16.11
2022-10-23T09:26:45.778Z,16.17
2022-10-23T09:27:45.865Z,16.23
2022-10-23T09:28:45.767Z,16.29
2022-10-23T09:29:45.767Z,16.33
2022-10-23T09:30:45.756Z,16.40
2022-10-23T09:31:45.748Z,16.45
2022-10-23T09:32:45.735Z,16.50
2022-10-23T09:33:45.718Z,16.54
2022-10-23T09:34:45.708Z,16.59
2022-10-23T09:35:45.687Z,16.63
2022-10-23T09:36:45.718Z,16.69
2022-10-23T09:37:45.935Z,16.73
2022-10-23T09:38:45.660Z,16.77
2022-10-23T09:39:45.650Z,16.81
2022-10-23T09:40:45.656Z,16.87
2022-10-23T09:41:45.647Z,16.92
2022-10-23T09:42:45.622Z,16.99
2022-10-23T09:43:45.600Z,17.06
2022-10-23T09:44:45.639Z,17.09
2022-10-23T09:45:45.599Z,17.15
2022-10-23T09:46:45.628Z,17.20
2022-10-23T09:47:45.749Z,17.22
2022-10-23T09:48:45.552Z,17.27
2022-10-23T09:49:45.543Z,17.33
2022-10-23T09:50:45.532Z,17.36
2022-10-23T09:51:45.566Z,17.38
2022-10-23T09:52:45.513Z,17.40
2022-10-23T09:53:45.502Z,17.46
2022-10-23T09:54:45.663Z,17.51
2022-10-23T09:55:45.476Z,17.57
2022-10-23T09:56:45.497Z,17.62
2022-10-23T09:57:45.932Z,17.70
2022-10-23T09:58:45.455Z,17.76
2022-10-23T09:59:45.445Z,17.86
2022-10-23T10:00:45.514Z,17.94
2022-10-23T10:01:45.543Z,18.02
2022-10-23T10:02:45.405Z,18.11
2022-10-23T10:03:45.416Z,18.20
2022-10-23T10:04:45.396Z,18.25
2022-10-23T10:05:45.384Z,18.32
2022-10-23T10:06:45.382Z,18.38
2022-10-23T10:07:45.575Z,18.44
2022-10-23T10:08:45.352Z,18.50
2022-10-23T10:09:45.326Z,18.57
2022-10-23T10:10:45.327Z,18.64
2022-10-23T10:11:45.315Z,18.71
2022-10-23T10:12:45.309Z,18.74
2022-10-23T10:13:45.285Z,18.79
2022-10-23T10:14:45.308Z,18.83
2022-10-23T10:15:45.269Z,18.87
2022-10-23T10:16:45.249Z,18.94
2022-10-23T10:17:45.525Z,19.05
2022-10-23T10:18:45.242Z,19.12
2022-10-23T10:19:45.240Z,19.21
2022-10-23T10:20:45.228Z,19.30
2022-10-23T10:21:45.202Z,19.38
2022-10-23T10:22:45.176Z,19.45
2022-10-23T10:23:45.178Z,19.52
2022-10-23T10:24:45.267Z,19.61
2022-10-23T10:25:49.862Z,19.65
2022-10-23T10:26:46.138Z,19.70
2022-10-23T10:27:45.482Z,19.76
2022-10-23T10:28:45.121Z,19.82
2022-10-23T10:29:45.131Z,19.85
2022-10-23T10:30:45.099Z,19.90
2022-10-23T10:31:48.268Z,19.98
2022-10-23T10:32:46.082Z,20.04
2022-10-23T10:33:45.072Z,20.12
2022-10-23T10:34:45.072Z,20.19
2022-10-23T10:35:45.073Z,20.23
2022-10-23T10:36:45.034Z,20.31
2022-10-23T10:37:47.347Z,20.34
2022-10-23T10:38:45.011Z,20.40
2022-10-23T10:39:45.053Z,20.44
2022-10-23T10:40:44.994Z,20.56
2022-10-23T10:41:45.013Z,20.63
2022-10-23T10:42:44.974Z,20.69
2022-10-23T10:43:44.994Z,20.73
2022-10-23T10:44:44.937Z,20.79
2022-10-23T10:45:44.936Z,20.88
2022-10-23T10:46:44.945Z,20.97
2022-10-23T10:47:45.208Z,21.05
2022-10-23T10:48:44.913Z,21.11
2022-10-23T10:49:44.927Z,21.13
2022-10-23T10:50:44.893Z,21.18
2022-10-23T10:51:44.939Z,21.24
2022-10-23T10:52:48.295Z,21.27
2022-10-23T10:53:44.868Z,21.30
2022-10-23T10:54:44.866Z,21.30
2022-10-23T10:55:44.848Z,21.33
2022-10-23T10:56:44.818Z,21.36
2022-10-23T10:57:45.188Z,21.42
2022-10-23T10:58:44.822Z,21.45
2022-10-23T10:59:44.790Z,21.49
2022-10-23T11:00:44.877Z,21.55
2022-10-23T11:01:44.944Z,21.61
2022-10-23T11:02:44.760Z,21.64
2022-10-23T11:03:44.771Z,21.67
2022-10-23T11:04:44.742Z,21.71
2022-10-23T11:05:44.721Z,21.66
2022-10-23T11:06:44.722Z,21.67
2022-10-23T11:07:44.964Z,21.73
2022-10-23T11:08:57.442Z,21.77
2022-10-23T11:09:45.739Z,21.82
2022-10-23T11:10:44.683Z,21.89
2022-10-23T11:11:44.673Z,21.89
2022-10-23T11:12:44.672Z,21.90
2022-10-23T11:13:44.664Z,21.96
2022-10-23T11:14:44.645Z,21.98
2022-10-23T11:15:44.658Z,21.96
2022-10-23T11:16:44.625Z,21.98
2022-10-23T11:17:45.105Z,21.94
2022-10-23T11:18:44.626Z,21.93
2022-10-23T11:19:44.574Z,21.85
2022-10-23T11:20:44.590Z,21.83
2022-10-23T11:21:44.556Z,21.83
2022-10-23T11:22:44.950Z,21.86
2022-10-23T11:23:44.549Z,21.90
2022-10-23T11:24:48.159Z,21.91
2022-10-23T11:25:45.517Z,21.93
2022-10-23T11:26:44.519Z,21.93
2022-10-23T11:27:44.914Z,21.93
2022-10-23T11:28:44.488Z,21.91
2022-10-23T11:29:44.479Z,21.90
2022-10-23T11:30:44.466Z,21.90
2022-10-23T11:31:44.469Z,21.86
2022-10-23T11:32:44.460Z,21.83
2022-10-23T11:33:44.820Z,21.82
2022-10-23T11:34:44.409Z,21.77
2022-10-23T11:35:44.420Z,21.73
2022-10-23T11:36:44.410Z,21.71
2022-10-23T11:37:44.756Z,21.70
2022-10-23T11:38:44.381Z,21.68
2022-10-23T11:39:44.381Z,21.66
2022-10-23T11:40:44.369Z,21.66
2022-10-23T11:41:44.369Z,21.64
2022-10-23T11:42:44.642Z,21.64
2022-10-23T11:43:44.333Z,21.68
2022-10-23T11:44:44.322Z,21.68
2022-10-23T11:45:44.304Z,21.70
2022-10-23T11:46:44.314Z,21.71
2022-10-23T11:47:44.321Z,21.71
2022-10-23T11:48:44.294Z,21.75
2022-10-23T11:49:44.263Z,21.77
2022-10-23T11:50:44.255Z,21.79
2022-10-23T11:51:44.264Z,21.82
2022-10-23T11:52:50.645Z,21.85
2022-10-23T11:53:45.206Z,21.89
2022-10-23T11:54:44.224Z,21.91
2022-10-23T11:55:44.187Z,21.94
2022-10-23T11:56:44.205Z,21.98
2022-10-23T11:57:44.174Z,22.04
2022-10-23T11:58:44.190Z,22.09
2022-10-23T11:59:44.146Z,22.15
2022-10-23T12:00:44.137Z,22.27
2022-10-23T12:01:44.213Z,22.38
2022-10-23T12:02:44.438Z,22.52
2022-10-23T12:03:44.118Z,22.66
2022-10-23T12:04:44.118Z,22.82
2022-10-23T12:05:44.106Z,22.96
2022-10-23T12:06:44.090Z,23.07
2022-10-23T12:07:44.296Z,23.14
2022-10-23T12:08:44.080Z,23.29
2022-10-23T12:09:44.099Z,23.47
2022-10-23T12:10:44.053Z,23.57
2022-10-23T12:11:44.021Z,23.57
2022-10-23T12:12:44.021Z,23.64
2022-10-23T12:13:44.011Z,23.68
2022-10-23T12:14:44.012Z,23.67
2022-10-23T12:15:43.992Z,23.68
2022-10-23T12:16:44.002Z,23.69
2022-10-23T12:17:44.314Z,23.68
2022-10-23T12:18:43.942Z,23.69
2022-10-23T12:19:43.982Z,23.67
2022-10-23T12:20:43.965Z,23.67
2022-10-23T12:21:43.914Z,23.64
2022-10-23T12:22:43.924Z,23.63
2022-10-23T12:23:47.247Z,23.60
2022-10-23T12:24:44.008Z,23.60
2022-10-23T12:25:43.975Z,23.63
2022-10-23T12:26:43.887Z,23.68
2022-10-23T12:27:44.120Z,23.84
2022-10-23T12:28:43.858Z,23.97
2022-10-23T12:29:43.865Z,24.00
2022-10-23T12:30:43.871Z,24.08
2022-10-23T12:31:45.657Z,24.06
2022-10-23T12:32:44.140Z,24.04
2022-10-23T12:33:43.819Z,23.92
2022-10-23T12:34:43.789Z,23.89
2022-10-23T12:35:43.779Z,23.92
2022-10-23T12:36:43.759Z,24.04
2022-10-23T12:37:43.812Z,24.14
2022-10-23T12:38:43.771Z,24.29
2022-10-23T12:39:43.740Z,24.44
2022-10-23T12:40:43.731Z,24.71
2022-10-23T12:41:43.721Z,24.93
2022-10-23T12:42:44.052Z,25.17
2022-10-23T12:43:43.702Z,25.36
2022-10-23T12:44:43.672Z,25.59
2022-10-23T12:45:43.661Z,25.89
2022-10-23T12:46:43.664Z,26.04
2022-10-23T12:47:43.668Z,26.16
2022-10-23T12:48:43.624Z,26.28
2022-10-23T12:49:43.643Z,26.41
2022-10-23T12:50:43.644Z,26.60
2022-10-23T12:51:43.625Z,26.86
2022-10-23T12:52:43.873Z,27.25
2022-10-23T12:53:43.594Z,27.80